Terminal Aerodrome Forecast
Issued by NWS

Current Version | Previous Version | Graphics & Text | Print | Product List | Glossary On
Versions: 1 2 3 4 5 6 7 8 9 10 11 12 13 14 15 16 17 18 19 20 21
000
FTUS41 KILN 161000 AAA
TAFLCK
TAF AMD
KLCK 161013Z 1610/1706 16005KT P6SM OVC015
      TEMPO 1611/1614 -SHRA
     FM161400 19011KT 5SM BR OVC012
     FM161600 22012G17KT 5SM BR OVC012
     FM161800 24012G20KT P6SM VCSH OVC015=

USA.gov is the U.S. government's official web portal to all federal, state and local government web resources and services.